createdAt,value
2024-02-09T00:00:44.555Z,12.50
2024-02-09T00:03:36.894Z,11.10
2024-02-09T00:06:07.641Z,9.70
2024-02-09T00:08:39.262Z,10.60
2024-02-09T00:11:08.940Z,9.50
2024-02-09T00:13:37.019Z,11.10
2024-02-09T00:16:06.412Z,9.50
2024-02-09T00:18:34.661Z,7.60
2024-02-09T00:21:02.817Z,7.70
2024-02-09T00:23:31.569Z,8.40
2024-02-09T00:26:02.159Z,7.50
2024-02-09T00:28:32.131Z,8.30
2024-02-09T00:31:00.377Z,7.10
2024-02-09T00:33:30.948Z,7.20
2024-02-09T00:35:59.816Z,7.00
2024-02-09T00:38:27.911Z,5.90
2024-02-09T00:40:56.441Z,6.00
2024-02-09T00:43:25.026Z,6.50
2024-02-09T00:45:53.292Z,6.00
2024-02-09T00:48:21.299Z,6.00
2024-02-09T00:50:49.304Z,5.30
2024-02-09T00:53:17.846Z,5.00
2024-02-09T00:55:46.009Z,5.70
2024-02-09T00:58:14.071Z,5.20
2024-02-09T01:00:44.053Z,5.80
2024-02-09T01:03:16.478Z,5.30
2024-02-09T01:05:45.919Z,6.40
2024-02-09T01:08:14.044Z,6.50
2024-02-09T01:14:02.187Z,5.30
2024-02-09T01:16:49.020Z,5.50
2024-02-09T01:19:35.845Z,4.60
2024-02-09T01:22:22.400Z,5.50
2024-02-09T01:25:09.126Z,5.70
2024-02-09T01:27:55.905Z,4.90
2024-02-09T01:30:42.490Z,5.50
2024-02-09T01:33:29.286Z,5.40
2024-02-09T01:36:16.355Z,5.50
2024-02-09T01:39:02.994Z,5.90
2024-02-09T01:41:49.587Z,6.40
2024-02-09T01:44:36.005Z,4.80
2024-02-09T01:47:23.352Z,6.00
2024-02-09T01:50:10.130Z,4.80
2024-02-09T01:52:57.015Z,5.80
2024-02-09T01:55:44.703Z,5.60
2024-02-09T01:58:31.483Z,5.00
2024-02-09T02:01:19.236Z,4.90
2024-02-09T02:04:06.570Z,5.60
2024-02-09T02:06:53.206Z,5.10
2024-02-09T02:09:39.750Z,6.10
2024-02-09T02:12:26.532Z,5.80
2024-02-09T02:15:12.748Z,5.60
2024-02-09T02:17:59.077Z,5.60
2024-02-09T02:20:46.178Z,5.30
2024-02-09T02:23:42.858Z,4.80
2024-02-09T02:26:29.423Z,5.10
2024-02-09T02:29:15.918Z,5.30
2024-02-09T02:32:02.400Z,5.40
2024-02-09T02:34:49.225Z,4.90
2024-02-09T02:37:35.987Z,4.70
2024-02-09T02:40:23.256Z,4.70
2024-02-09T02:42:51.244Z,5.20
2024-02-09T02:45:19.301Z,5.90
2024-02-09T02:48:07.301Z,5.20
2024-02-09T02:50:53.876Z,4.70
2024-02-09T02:53:40.336Z,5.50
2024-02-09T02:56:27.242Z,6.00
2024-02-09T02:59:13.693Z,5.30
2024-02-09T03:02:00.331Z,5.50
2024-02-09T03:04:29.142Z,6.50
2024-02-09T03:07:21.974Z,5.40
2024-02-09T03:09:45.463Z,5.60
2024-02-09T03:12:15.355Z,4.20
2024-02-09T03:14:45.774Z,5.60
2024-02-09T03:17:13.869Z,5.30
2024-02-09T03:19:42.174Z,4.80
2024-02-09T03:22:10.443Z,6.10
2024-02-09T03:24:41.624Z,6.10
2024-02-09T03:27:09.712Z,5.80
2024-02-09T03:29:38.112Z,5.30
2024-02-09T03:32:06.261Z,4.40
2024-02-09T03:34:34.576Z,6.00
2024-02-09T03:37:02.886Z,5.30
2024-02-09T03:39:31.257Z,5.00
2024-02-09T03:42:00.204Z,5.60
2024-02-09T03:44:28.308Z,5.70
2024-02-09T03:46:56.405Z,6.20
2024-02-09T03:49:24.501Z,5.80
2024-02-09T03:51:52.576Z,5.20
2024-02-09T03:54:20.678Z,5.70
2024-02-09T03:56:48.743Z,5.10
2024-02-09T03:59:16.757Z,5.60
2024-02-09T04:01:44.878Z,5.40
2024-02-09T04:04:13.026Z,5.80
2024-02-09T04:06:41.355Z,5.40
2024-02-09T04:09:31.019Z,5.30
2024-02-09T04:11:58.536Z,5.90
2024-02-09T04:14:26.496Z,5.60
2024-02-09T04:16:54.959Z,6.50
2024-02-09T04:19:23.802Z,5.80
2024-02-09T04:21:52.217Z,6.20
2024-02-09T04:24:27.222Z,6.10
2024-02-09T04:26:56.463Z,6.10
2024-02-09T04:29:25.004Z,6.20
2024-02-09T04:31:53.249Z,5.50
2024-02-09T04:34:21.441Z,5.30
2024-02-09T04:36:49.905Z,5.60
2024-02-09T04:39:18.018Z,5.70
2024-02-09T04:41:49.927Z,5.60
2024-02-09T04:44:17.951Z,5.30
2024-02-09T04:46:46.127Z,5.60
2024-02-09T04:49:14.258Z,5.30
2024-02-09T04:51:47.980Z,6.00
2024-02-09T04:54:16.498Z,5.60
2024-02-09T04:56:44.705Z,5.10
2024-02-09T04:59:13.517Z,6.90
2024-02-09T05:01:42.612Z,5.90
2024-02-09T05:04:12.624Z,6.30
2024-02-09T05:06:41.151Z,5.80
2024-02-09T05:09:12.692Z,6.40
2024-02-09T05:11:41.020Z,5.70
2024-02-09T05:14:09.067Z,8.00
2024-02-09T05:16:42.670Z,8.80
2024-02-09T05:19:13.869Z,7.20
2024-02-09T05:21:43.233Z,7.50
2024-02-09T05:24:11.542Z,8.20
2024-02-09T05:26:39.662Z,7.00
2024-02-09T05:29:07.692Z,6.60
2024-02-09T05:31:35.934Z,6.90
2024-02-09T05:34:06.674Z,6.80
2024-02-09T05:36:36.827Z,5.40
2024-02-09T05:39:05.165Z,5.30
2024-02-09T05:41:33.258Z,7.70
2024-02-09T05:44:01.279Z,6.90
2024-02-09T05:46:29.652Z,5.60
2024-02-09T05:48:58.250Z,6.30
2024-02-09T05:51:26.801Z,5.50
2024-02-09T05:53:55.188Z,5.80
2024-02-09T05:56:27.598Z,5.30
2024-02-09T05:59:00.191Z,6.50
2024-02-09T06:01:34.617Z,6.00
2024-02-09T06:04:03.277Z,6.20
2024-02-09T06:06:31.692Z,5.90
2024-02-09T06:09:03.021Z,7.50
2024-02-09T06:11:31.322Z,7.70
2024-02-09T06:14:02.145Z,7.40
2024-02-09T06:16:30.524Z,8.40
2024-02-09T06:18:59.196Z,7.50
2024-02-09T06:21:27.746Z,7.20
2024-02-09T06:23:57.508Z,7.40
2024-02-09T06:26:26.065Z,7.40
2024-02-09T06:28:55.085Z,6.20
2024-02-09T06:31:28.344Z,6.50
2024-02-09T06:33:59.469Z,6.00
2024-02-09T06:36:27.944Z,6.30
2024-02-09T06:38:56.334Z,6.50
2024-02-09T06:41:24.539Z,6.90
2024-02-09T06:43:55.570Z,6.70
2024-02-09T06:46:24.074Z,6.80
2024-02-09T06:48:52.304Z,7.60
2024-02-09T06:51:22.199Z,6.50
2024-02-09T06:53:52.388Z,9.20
2024-02-09T06:56:21.393Z,26.30
2024-02-09T06:58:51.800Z,8.10
2024-02-09T07:01:20.592Z,9.40
2024-02-09T07:03:51.064Z,8.80
2024-02-09T07:06:21.163Z,9.40
2024-02-09T07:08:54.202Z,10.10
2024-02-09T07:11:23.104Z,8.60
2024-02-09T07:13:51.275Z,10.10
2024-02-09T07:16:20.229Z,11.30
2024-02-09T07:18:48.581Z,11.00
2024-02-09T07:21:17.029Z,11.50
2024-02-09T07:23:52.322Z,17.90
2024-02-09T07:26:22.340Z,28.50
2024-02-09T07:28:50.677Z,25.00
2024-02-09T07:31:20.378Z,17.50
2024-02-09T07:33:48.528Z,12.00
2024-02-09T07:36:16.942Z,9.60
2024-02-09T07:38:45.143Z,9.60
2024-02-09T07:41:13.860Z,8.30
2024-02-09T07:43:42.227Z,14.50
2024-02-09T07:46:10.375Z,12.40
2024-02-09T07:48:38.790Z,10.30
2024-02-09T07:51:08.047Z,17.10
2024-02-09T07:53:37.257Z,10.70
2024-02-09T07:56:05.892Z,8.80
2024-02-09T07:58:34.215Z,10.10
2024-02-09T08:01:02.349Z,14.70
2024-02-09T08:03:36.329Z,10.80
2024-02-09T08:06:04.715Z,12.60
2024-02-09T08:08:32.890Z,9.60
2024-02-09T08:11:01.724Z,11.20
2024-02-09T08:13:29.987Z,10.20
2024-02-09T08:15:58.325Z,7.60
2024-02-09T08:18:27.697Z,9.10
2024-02-09T08:20:55.737Z,9.90
2024-02-09T08:23:23.792Z,11.60
2024-02-09T08:25:52.081Z,9.60
2024-02-09T08:28:20.451Z,8.50
2024-02-09T08:30:48.452Z,10.00
2024-02-09T08:33:16.470Z,10.00
2024-02-09T08:35:45.939Z,9.40
2024-02-09T08:38:13.981Z,6.70
2024-02-09T08:40:42.311Z,8.80
2024-02-09T08:43:12.085Z,8.30
2024-02-09T08:45:41.805Z,9.50
2024-02-09T08:48:09.881Z,8.30
2024-02-09T08:50:38.444Z,8.80
2024-02-09T08:53:06.820Z,10.60
2024-02-09T08:55:35.650Z,8.70
2024-02-09T08:58:10.964Z,9.10
2024-02-09T09:00:44.686Z,9.10
2024-02-09T09:03:19.217Z,10.30
2024-02-09T09:05:50.600Z,8.80
2024-02-09T09:08:19.043Z,9.10
2024-02-09T09:10:47.326Z,8.80
2024-02-09T09:13:15.645Z,9.40
2024-02-09T09:15:43.964Z,9.40
2024-02-09T09:18:12.476Z,10.60
2024-02-09T09:20:40.578Z,10.40
2024-02-09T09:23:08.639Z,11.40
2024-02-09T09:25:36.772Z,11.00
2024-02-09T09:28:05.723Z,10.90
2024-02-09T09:30:34.966Z,11.30
2024-02-09T09:33:04.882Z,10.90
2024-02-09T09:35:33.094Z,11.50
2024-02-09T09:38:01.173Z,21.90
2024-02-09T09:40:36.478Z,20.50
2024-02-09T09:43:05.784Z,12.20
2024-02-09T09:45:36.042Z,11.50
2024-02-09T09:48:08.653Z,12.50
2024-02-09T09:50:37.135Z,11.80
2024-02-09T09:53:11.001Z,12.10
2024-02-09T09:55:39.139Z,11.00
2024-02-09T09:58:07.753Z,12.10
2024-02-09T10:00:36.945Z,13.20
2024-02-09T10:03:06.159Z,11.40
2024-02-09T10:05:36.722Z,12.90
2024-02-09T10:08:05.286Z,12.30
2024-02-09T10:10:33.381Z,10.90
2024-02-09T10:13:13.308Z,10.80
2024-02-09T10:15:43.470Z,13.70
2024-02-09T10:18:12.108Z,13.60
2024-02-09T10:20:44.220Z,14.00
2024-02-09T10:23:12.334Z,13.60
2024-02-09T10:25:43.125Z,14.00
2024-02-09T10:28:12.713Z,13.10
2024-02-09T10:30:41.698Z,13.10
2024-02-09T10:33:11.717Z,13.90
2024-02-09T10:35:40.191Z,15.70
2024-02-09T10:38:08.451Z,20.90
2024-02-09T10:40:36.679Z,16.50
2024-02-09T10:43:06.058Z,19.60
2024-02-09T10:45:37.094Z,14.40
2024-02-09T10:48:13.955Z,14.80
2024-02-09T10:50:43.262Z,15.10
2024-02-09T10:53:13.500Z,22.20
2024-02-09T10:55:45.991Z,17.30
2024-02-09T10:58:17.173Z,15.20
2024-02-09T11:00:45.667Z,19.10
2024-02-09T11:03:14.168Z,18.60
2024-02-09T11:05:42.609Z,17.30
2024-02-09T11:08:11.362Z,18.70
2024-02-09T11:10:39.611Z,15.00
2024-02-09T11:13:07.923Z,15.20
2024-02-09T11:15:36.436Z,15.00
2024-02-09T11:18:04.889Z,21.10
2024-02-09T11:20:34.016Z,17.10
2024-02-09T11:23:02.672Z,18.90
2024-02-09T11:25:36.015Z,19.10
2024-02-09T11:28:09.284Z,17.50
2024-02-09T11:30:40.556Z,15.20
2024-02-09T11:33:10.433Z,18.50
2024-02-09T11:35:38.440Z,18.10
2024-02-09T11:38:07.120Z,16.10
2024-02-09T11:40:38.012Z,17.50
2024-02-09T11:43:06.363Z,17.30
2024-02-09T11:45:35.465Z,17.40
2024-02-09T11:48:04.331Z,20.80
2024-02-09T11:50:32.705Z,17.40
2024-02-09T11:53:12.246Z,15.30
2024-02-09T11:55:45.034Z,19.00
2024-02-09T11:58:14.924Z,23.10
2024-02-09T12:00:45.052Z,20.50
2024-02-09T12:03:16.603Z,16.50
2024-02-09T12:05:48.410Z,17.90
2024-02-09T12:08:20.881Z,16.60
2024-02-09T12:10:52.475Z,17.90
2024-02-09T12:13:22.770Z,18.00
2024-02-09T12:15:53.363Z,17.50
2024-02-09T12:18:24.372Z,16.90
2024-02-09T12:20:55.502Z,15.30
2024-02-09T12:23:23.849Z,17.40
2024-02-09T12:25:53.931Z,15.50
2024-02-09T12:28:25.087Z,15.40
2024-02-09T12:30:53.269Z,16.40
2024-02-09T12:33:26.298Z,16.80
2024-02-09T12:35:56.241Z,14.10
2024-02-09T12:38:24.591Z,14.30
2024-02-09T12:40:57.252Z,14.30
2024-02-09T12:43:25.602Z,13.40
2024-02-09T12:45:53.761Z,14.70
2024-02-09T12:48:23.155Z,13.50
2024-02-09T12:50:57.655Z,13.90
2024-02-09T12:53:27.168Z,14.30
2024-02-09T12:55:57.061Z,14.50
2024-02-09T12:58:25.554Z,15.00
2024-02-09T13:01:00.373Z,16.00
2024-02-09T13:03:29.995Z,16.30
2024-02-09T13:05:58.292Z,15.90
2024-02-09T13:08:30.660Z,14.50
2024-02-09T13:10:58.894Z,14.00
2024-02-09T13:15:11.506Z,15.20
2024-02-09T13:17:40.989Z,15.10
2024-02-09T13:20:10.619Z,18.40
2024-02-09T13:22:39.109Z,14.60
2024-02-09T13:25:07.463Z,13.60
2024-02-09T13:27:35.819Z,14.50
2024-02-09T13:30:08.883Z,13.40
2024-02-09T13:32:37.230Z,12.10
2024-02-09T13:35:14.151Z,14.50
2024-02-09T13:37:45.609Z,12.10
2024-02-09T13:40:17.638Z,13.30
2024-02-09T13:42:48.731Z,13.80
2024-02-09T13:45:18.764Z,13.90
2024-02-09T13:47:46.951Z,16.30
2024-02-09T13:50:16.655Z,16.20
2024-02-09T13:52:47.547Z,15.10
2024-02-09T13:55:15.684Z,15.30
2024-02-09T13:57:49.056Z,16.40
2024-02-09T14:00:18.963Z,16.50
2024-02-09T14:02:47.292Z,15.90
2024-02-09T14:05:17.026Z,17.10
2024-02-09T14:07:48.067Z,16.10
2024-02-09T14:10:16.876Z,16.00
2024-02-09T14:12:44.967Z,17.40
2024-02-09T14:15:13.623Z,17.00
2024-02-09T14:17:41.808Z,15.30
2024-02-09T14:20:10.723Z,15.00
2024-02-09T14:22:39.052Z,16.30
2024-02-09T14:25:07.471Z,15.30
2024-02-09T14:27:35.437Z,17.70
2024-02-09T14:30:03.748Z,16.60
2024-02-09T14:32:33.656Z,17.50
2024-02-09T14:35:01.872Z,17.40
2024-02-09T14:37:30.078Z,16.80
2024-02-09T14:39:58.108Z,17.40
2024-02-09T14:42:27.623Z,16.90
2024-02-09T14:44:55.775Z,21.90
2024-02-09T14:47:25.126Z,26.20
2024-02-09T14:49:53.366Z,25.00
2024-02-09T14:52:22.209Z,22.30
2024-02-09T14:54:51.581Z,15.50
2024-02-09T14:57:19.749Z,18.20
2024-02-09T14:59:48.110Z,14.60
2024-02-09T15:02:16.325Z,13.20
2024-02-09T15:04:45.323Z,10.20
2024-02-09T15:07:14.056Z,4.40
2024-02-09T15:09:42.292Z,3.20
2024-02-09T15:12:13.927Z,3.20
2024-02-09T15:14:41.925Z,3.20
2024-02-09T15:17:10.070Z,2.70
2024-02-09T15:19:38.144Z,3.20
2024-02-09T15:22:08.264Z,2.90
2024-02-09T15:24:36.944Z,3.20
2024-02-09T15:27:05.152Z,2.70
2024-02-09T15:29:33.120Z,2.40
2024-02-09T15:32:01.021Z,6.00
2024-02-09T15:34:29.821Z,3.00
2024-02-09T15:37:01.512Z,3.50
2024-02-09T15:39:30.684Z,3.40
2024-02-09T15:42:01.091Z,4.50
2024-02-09T15:44:29.676Z,3.70
2024-02-09T15:46:58.317Z,5.00
2024-02-09T15:49:26.656Z,5.90
2024-02-09T15:51:58.567Z,4.70
2024-02-09T15:54:26.583Z,5.60
2024-02-09T15:56:54.490Z,5.20
2024-02-09T15:59:24.893Z,5.70
2024-02-09T16:01:54.976Z,19.20
2024-02-09T16:04:25.548Z,15.60
2024-02-09T16:06:54.444Z,13.90
2024-02-09T16:09:22.385Z,6.00
2024-02-09T16:11:50.721Z,14.30
2024-02-09T16:14:18.632Z,14.50
2024-02-09T16:16:46.640Z,10.90
2024-02-09T16:19:14.723Z,13.70
2024-02-09T16:21:42.781Z,7.00
2024-02-09T16:24:11.744Z,6.70
2024-02-09T16:26:40.651Z,5.30
2024-02-09T16:29:10.330Z,4.70
2024-02-09T16:31:40.131Z,4.80
2024-02-09T16:34:08.768Z,5.20
2024-02-09T16:36:40.773Z,5.30
2024-02-09T16:39:09.808Z,4.30
2024-02-09T16:41:38.010Z,5.00
2024-02-09T16:44:09.603Z,4.70
2024-02-09T16:46:37.654Z,5.70
2024-02-09T16:49:05.847Z,7.00
2024-02-09T16:51:37.033Z,6.80
2024-02-09T16:54:05.197Z,9.10
2024-02-09T16:56:33.142Z,6.80
2024-02-09T16:59:01.641Z,6.50
2024-02-09T17:01:30.460Z,6.80
2024-02-09T17:03:59.028Z,8.20
2024-02-09T17:06:27.468Z,8.40
2024-02-09T17:08:56.071Z,9.10
2024-02-09T17:11:24.107Z,7.70
2024-02-09T17:13:52.889Z,9.00
2024-02-09T17:16:21.386Z,9.10
2024-02-09T17:18:52.092Z,8.00
2024-02-09T17:21:22.200Z,8.60
2024-02-09T17:23:51.857Z,7.80
2024-02-09T17:26:20.481Z,7.80
2024-02-09T17:28:49.766Z,9.30
2024-02-09T17:31:19.265Z,9.20
2024-02-09T17:33:47.560Z,8.00
2024-02-09T17:36:16.514Z,9.50
2024-02-09T17:38:45.168Z,8.30
2024-02-09T17:41:13.912Z,8.30
2024-02-09T17:43:42.608Z,8.90
2024-02-09T17:46:10.761Z,10.80
2024-02-09T17:48:38.983Z,15.60
2024-02-09T17:51:07.782Z,10.70
2024-02-09T17:53:36.025Z,10.40
2024-02-09T17:56:06.035Z,10.70
2024-02-09T17:58:34.297Z,11.70
2024-02-09T18:01:02.558Z,12.60
2024-02-09T18:03:30.600Z,13.30
2024-02-09T18:05:59.750Z,10.50
2024-02-09T18:08:27.733Z,9.60
2024-02-09T18:10:55.859Z,9.70
2024-02-09T18:13:23.863Z,9.20
2024-02-09T18:15:54.131Z,10.10
2024-02-09T18:18:23.488Z,11.50
2024-02-09T18:20:53.378Z,10.20
2024-02-09T18:23:21.774Z,9.90
2024-02-09T18:25:50.210Z,8.90
2024-02-09T18:28:18.419Z,15.90
2024-02-09T18:30:50.283Z,18.20
2024-02-09T18:33:20.163Z,16.40
2024-02-09T18:35:54.245Z,13.90
2024-02-09T18:38:22.582Z,10.60
2024-02-09T18:40:52.073Z,11.20
2024-02-09T18:43:20.350Z,10.60
2024-02-09T18:45:48.264Z,10.60
2024-02-09T18:48:16.311Z,11.40
2024-02-09T18:50:45.443Z,11.60
2024-02-09T18:53:13.659Z,10.80
2024-02-09T18:55:41.641Z,10.60
2024-02-09T18:58:10.212Z,8.90
2024-02-09T19:00:38.462Z,7.80
2024-02-09T19:03:08.658Z,7.70
2024-02-09T19:05:37.271Z,7.70
2024-02-09T19:08:09.253Z,7.40
2024-02-09T19:10:37.400Z,8.20
2024-02-09T19:13:05.577Z,8.70
2024-02-09T19:15:34.126Z,9.40
2024-02-09T19:18:02.173Z,13.40
2024-02-09T19:20:30.202Z,14.90
2024-02-09T19:23:01.311Z,14.70
2024-02-09T19:25:31.358Z,14.90
2024-02-09T19:28:00.221Z,12.50
2024-02-09T19:30:31.717Z,11.70
2024-02-09T19:33:01.034Z,11.70
2024-02-09T19:35:29.132Z,13.10
2024-02-09T19:37:58.200Z,11.40
2024-02-09T19:40:28.266Z,9.60
2024-02-09T19:42:56.690Z,8.50
2024-02-09T19:45:24.946Z,6.90
2024-02-09T19:47:56.839Z,6.50
2024-02-09T19:50:26.292Z,9.10
2024-02-09T19:52:55.259Z,8.80
2024-02-09T19:55:23.726Z,11.20
2024-02-09T19:57:53.138Z,9.20
2024-02-09T20:00:22.332Z,9.40
2024-02-09T20:02:56.490Z,8.90
2024-02-09T20:05:28.135Z,6.90
2024-02-09T20:07:56.792Z,7.60
2024-02-09T20:10:26.304Z,8.40
2024-02-09T20:12:56.104Z,6.70
2024-02-09T20:15:27.899Z,13.90
2024-02-09T20:20:25.753Z,14.50
2024-02-09T20:22:54.932Z,13.30
2024-02-09T20:25:24.227Z,10.20
2024-02-09T20:27:52.497Z,9.30
2024-02-09T20:30:21.686Z,8.50
2024-02-09T20:32:49.912Z,9.20
2024-02-09T20:35:18.288Z,8.30
2024-02-09T20:37:46.585Z,8.10
2024-02-09T20:40:16.354Z,7.30
2024-02-09T20:42:44.780Z,8.30
2024-02-09T20:45:13.197Z,7.90
2024-02-09T20:47:42.414Z,15.30
2024-02-09T20:50:16.751Z,12.60
2024-02-09T20:52:50.914Z,9.70
2024-02-09T20:55:20.887Z,11.80
2024-02-09T20:57:50.610Z,9.40
2024-02-09T21:00:21.285Z,9.70
2024-02-09T21:02:52.535Z,10.20
2024-02-09T21:05:21.715Z,11.70
2024-02-09T21:07:50.563Z,10.20
2024-02-09T21:10:18.966Z,10.80
2024-02-09T21:12:49.264Z,11.70
2024-02-09T21:15:19.158Z,9.40
2024-02-09T21:17:51.638Z,8.20
2024-02-09T21:20:21.011Z,7.70
2024-02-09T21:22:49.394Z,9.90
2024-02-09T21:25:20.292Z,11.30
2024-02-09T21:27:50.246Z,11.10
2024-02-09T21:30:24.085Z,10.00
2024-02-09T21:32:58.210Z,11.30
2024-02-09T21:35:31.620Z,12.10
2024-02-09T21:38:01.247Z,11.50
2024-02-09T21:40:32.403Z,11.60
2024-02-09T21:43:02.395Z,11.50
2024-02-09T21:45:30.661Z,11.70
2024-02-09T21:47:58.716Z,12.30
2024-02-09T21:50:26.856Z,11.00
2024-02-09T21:52:57.005Z,11.00
2024-02-09T21:55:28.036Z,11.90
2024-02-09T21:57:56.618Z,10.50
2024-02-09T22:00:26.205Z,12.40
2024-02-09T22:02:54.872Z,12.60
2024-02-09T22:05:23.088Z,14.70
2024-02-09T22:07:51.891Z,10.10
2024-02-09T22:10:20.418Z,10.60
2024-02-09T22:12:54.193Z,14.90
2024-02-09T22:15:23.258Z,12.50
2024-02-09T22:17:54.267Z,13.80
2024-02-09T22:20:24.980Z,19.30
2024-02-09T22:22:54.424Z,19.90
2024-02-09T22:25:23.038Z,24.70
2024-02-09T22:27:56.446Z,24.30
2024-02-09T22:30:24.619Z,27.50
2024-02-09T22:32:52.771Z,20.70
2024-02-09T22:35:20.923Z,16.40
2024-02-09T22:37:49.186Z,15.00
2024-02-09T22:40:19.679Z,14.90
2024-02-09T22:42:52.034Z,16.00
2024-02-09T22:45:23.724Z,14.40
2024-02-09T22:47:57.438Z,11.50
2024-02-09T22:50:27.034Z,11.50
2024-02-09T22:52:57.069Z,12.60
2024-02-09T22:55:27.621Z,11.30
2024-02-09T22:57:55.960Z,9.90
2024-02-09T23:00:32.039Z,9.80
2024-02-09T23:03:00.160Z,8.50
2024-02-09T23:05:31.114Z,11.50
2024-02-09T23:07:59.829Z,10.80
2024-02-09T23:10:28.006Z,10.00
2024-02-09T23:12:56.477Z,9.40
2024-02-09T23:15:26.413Z,11.50
2024-02-09T23:17:56.002Z,11.40
2024-02-09T23:20:25.216Z,9.00
2024-02-09T23:22:54.715Z,9.70
2024-02-09T23:25:23.750Z,9.70
2024-02-09T23:27:57.738Z,10.30
2024-02-09T23:30:32.110Z,9.40
2024-02-09T23:33:03.806Z,9.30
2024-02-09T23:35:32.966Z,9.60
2024-02-09T23:38:02.499Z,9.00
2024-02-09T23:40:31.139Z,9.70
2024-02-09T23:42:59.189Z,9.10
2024-02-09T23:45:30.493Z,9.60
2024-02-09T23:48:05.478Z,9.10
2024-02-09T23:50:34.842Z,9.70
2024-02-09T23:53:05.896Z,9.20
2024-02-09T23:55:33.952Z,9.70
2024-02-09T23:58:01.968Z,8.90
